sensor_id;sensor_type;location;lat;lon;timestamp;pressure;altitude;pressure_sealevel;temperature;humidity
49122;BME280;35529;44.342;25.944;2023-12-20T00:01:37;100951.50;;;3.10;100.00
49122;BME280;35529;44.342;25.944;2023-12-20T00:04:03;100949.03;;;3.09;100.00
49122;BME280;35529;44.342;25.944;2023-12-20T00:06:29;100938.09;;;3.04;100.00
49122;BME280;35529;44.342;25.944;2023-12-20T00:08:56;100938.53;;;2.99;100.00
49122;BME280;35529;44.342;25.944;2023-12-20T00:11:23;100936.28;;;2.94;100.00
49122;BME280;35529;44.342;25.944;2023-12-20T00:13:50;100932.00;;;2.93;100.00
49122;BME280;35529;44.342;25.944;2023-12-20T00:16:16;100932.72;;;2.95;100.00
49122;BME280;35529;44.342;25.944;2023-12-20T00:18:42;100926.50;;;2.96;100.00
49122;BME280;35529;44.342;25.944;2023-12-20T00:21:08;100914.50;;;2.94;100.00
49122;BME280;35529;44.342;25.944;2023-12-20T00:23:34;100913.78;;;2.92;100.00
49122;BME280;35529;44.342;25.944;2023-12-20T00:26:00;100903.44;;;2.90;100.00
49122;BME280;35529;44.342;25.944;2023-12-20T00:28:26;100906.19;;;2.89;100.00
49122;BME280;35529;44.342;25.944;2023-12-20T00:30:52;100895.66;;;2.69;100.00
49122;BME280;35529;44.342;25.944;2023-12-20T00:33:19;100899.06;;;2.60;100.00
49122;BME280;35529;44.342;25.944;2023-12-20T00:35:45;100890.97;;;2.63;100.00
49122;BME280;35529;44.342;25.944;2023-12-20T00:38:11;100885.97;;;2.60;100.00
49122;BME280;35529;44.342;25.944;2023-12-20T00:40:37;100903.47;;;2.49;100.00
49122;BME280;35529;44.342;25.944;2023-12-20T00:43:03;100890.59;;;2.37;100.00
49122;BME280;35529;44.342;25.944;2023-12-20T00:45:29;100890.16;;;2.31;100.00
49122;BME280;35529;44.342;25.944;2023-12-20T00:47:55;100889.66;;;2.47;100.00
49122;BME280;35529;44.342;25.944;2023-12-20T00:50:22;100880.31;;;2.55;100.00
49122;BME280;35529;44.342;25.944;2023-12-20T00:52:48;100879.19;;;2.57;100.00
49122;BME280;35529;44.342;25.944;2023-12-20T00:55:14;100870.53;;;2.57;100.00
49122;BME280;35529;44.342;25.944;2023-12-20T00:57:40;100866.66;;;2.51;100.00
49122;BME280;35529;44.342;25.944;2023-12-20T01:00:06;100867.03;;;2.46;100.00
49122;BME280;35529;44.342;25.944;2023-12-20T01:02:35;100867.88;;;2.47;100.00
49122;BME280;35529;44.342;25.944;2023-12-20T01:05:01;100860.97;;;2.46;100.00
49122;BME280;35529;44.342;25.944;2023-12-20T01:07:28;100852.69;;;2.41;100.00
49122;BME280;35529;44.342;25.944;2023-12-20T01:09:54;100851.88;;;2.40;100.00
49122;BME280;35529;44.342;25.944;2023-12-20T01:12:20;100865.09;;;2.39;100.00
49122;BME280;35529;44.342;25.944;2023-12-20T01:14:46;100859.16;;;2.37;100.00
49122;BME280;35529;44.342;25.944;2023-12-20T01:17:13;100872.25;;;2.37;100.00
49122;BME280;35529;44.342;25.944;2023-12-20T01:19:39;100869.78;;;2.35;100.00
49122;BME280;35529;44.342;25.944;2023-12-20T01:22:05;100864.22;;;2.28;100.00
49122;BME280;35529;44.342;25.944;2023-12-20T01:24:31;100861.44;;;2.20;100.00
49122;BME280;35529;44.342;25.944;2023-12-20T01:26:57;100868.47;;;2.20;100.00
49122;BME280;35529;44.342;25.944;2023-12-20T01:29:23;100854.88;;;2.35;100.00
49122;BME280;35529;44.342;25.944;2023-12-20T01:31:49;100859.75;;;2.50;100.00
49122;BME280;35529;44.342;25.944;2023-12-20T01:34:17;100851.06;;;2.59;100.00
49122;BME280;35529;44.342;25.944;2023-12-20T01:36:43;100850.13;;;2.70;100.00
49122;BME280;35529;44.342;25.944;2023-12-20T01:39:09;100845.03;;;2.68;100.00
49122;BME280;35529;44.342;25.944;2023-12-20T01:41:35;100843.06;;;2.61;100.00
49122;BME280;35529;44.342;25.944;2023-12-20T01:44:01;100829.94;;;2.51;100.00
49122;BME280;35529;44.342;25.944;2023-12-20T01:46:28;100832.97;;;2.46;100.00
49122;BME280;35529;44.342;25.944;2023-12-20T01:48:54;100828.56;;;2.47;100.00
49122;BME280;35529;44.342;25.944;2023-12-20T01:51:20;100821.81;;;2.54;100.00
49122;BME280;35529;44.342;25.944;2023-12-20T01:53:46;100822.22;;;2.59;100.00
49122;BME280;35529;44.342;25.944;2023-12-20T01:56:13;100819.75;;;2.67;100.00
49122;BME280;35529;44.342;25.944;2023-12-20T01:58:44;100801.81;;;2.73;100.00
49122;BME280;35529;44.342;25.944;2023-12-20T02:01:11;100801.44;;;2.77;100.00
49122;BME280;35529;44.342;25.944;2023-12-20T02:03:37;100802.81;;;2.81;100.00
49122;BME280;35529;44.342;25.944;2023-12-20T02:06:04;100795.47;;;2.85;100.00
49122;BME280;35529;44.342;25.944;2023-12-20T02:08:31;100796.03;;;2.89;100.00
49122;BME280;35529;44.342;25.944;2023-12-20T02:10:57;100790.66;;;2.90;100.00
49122;BME280;35529;44.342;25.944;2023-12-20T02:13:23;100788.03;;;2.90;100.00
49122;BME280;35529;44.342;25.944;2023-12-20T02:15:49;100789.69;;;2.91;100.00
49122;BME280;35529;44.342;25.944;2023-12-20T02:18:16;100781.81;;;2.91;100.00
49122;BME280;35529;44.342;25.944;2023-12-20T02:20:42;100785.41;;;2.90;100.00
49122;BME280;35529;44.342;25.944;2023-12-20T02:23:08;100773.13;;;2.91;100.00
49122;BME280;35529;44.342;25.944;2023-12-20T02:25:34;100769.09;;;2.87;100.00
49122;BME280;35529;44.342;25.944;2023-12-20T02:28:01;100759.47;;;2.87;100.00
49122;BME280;35529;44.342;25.944;2023-12-20T02:30:28;100758.22;;;2.91;100.00
49122;BME280;35529;44.342;25.944;2023-12-20T02:32:54;100752.97;;;2.91;100.00
49122;BME280;35529;44.342;25.944;2023-12-20T02:35:20;100755.03;;;2.88;100.00
49122;BME280;35529;44.342;25.944;2023-12-20T02:37:46;100739.31;;;2.88;100.00
49122;BME280;35529;44.342;25.944;2023-12-20T02:40:12;100739.72;;;2.83;100.00
49122;BME280;35529;44.342;25.944;2023-12-20T02:42:38;100741.78;;;2.79;100.00
49122;BME280;35529;44.342;25.944;2023-12-20T02:45:05;100737.66;;;2.77;100.00
49122;BME280;35529;44.342;25.944;2023-12-20T02:47:31;100729.81;;;2.67;100.00
49122;BME280;35529;44.342;25.944;2023-12-20T02:49:57;100732.56;;;2.65;100.00
49122;BME280;35529;44.342;25.944;2023-12-20T02:52:23;100727.16;;;2.57;100.00
49122;BME280;35529;44.342;25.944;2023-12-20T02:54:50;100732.69;;;2.54;100.00
49122;BME280;35529;44.342;25.944;2023-12-20T02:57:16;100724.53;;;2.47;100.00
49122;BME280;35529;44.342;25.944;2023-12-20T02:59:42;100718.50;;;2.47;100.00
49122;BME280;35529;44.342;25.944;2023-12-20T03:02:08;100714.50;;;2.43;100.00
49122;BME280;35529;44.342;25.944;2023-12-20T03:04:34;100720.25;;;2.37;100.00
49122;BME280;35529;44.342;25.944;2023-12-20T03:07:00;100723.03;;;2.35;100.00
49122;BME280;35529;44.342;25.944;2023-12-20T03:09:26;100713.09;;;2.29;100.00
49122;BME280;35529;44.342;25.944;2023-12-20T03:11:53;100710.03;;;2.24;100.00
49122;BME280;35529;44.342;25.944;2023-12-20T03:14:19;100703.16;;;2.23;100.00
49122;BME280;35529;44.342;25.944;2023-12-20T03:16:51;100713.22;;;2.17;100.00
49122;BME280;35529;44.342;25.944;2023-12-20T03:19:17;100704.78;;;2.04;100.00
49122;BME280;35529;44.342;25.944;2023-12-20T03:21:45;100698.31;;;2.08;100.00
49122;BME280;35529;44.342;25.944;2023-12-20T03:24:11;100698.88;;;2.12;100.00
49122;BME280;35529;44.342;25.944;2023-12-20T03:26:37;100691.41;;;1.97;100.00
49122;BME280;35529;44.342;25.944;2023-12-20T03:29:03;100689.44;;;1.90;100.00
49122;BME280;35529;44.342;25.944;2023-12-20T03:31:29;100683.25;;;1.91;100.00
49122;BME280;35529;44.342;25.944;2023-12-20T03:33:56;100669.16;;;1.72;100.00
49122;BME280;35529;44.342;25.944;2023-12-20T03:36:22;100666.88;;;1.48;100.00
49122;BME280;35529;44.342;25.944;2023-12-20T03:38:48;100661.31;;;1.31;100.00
49122;BME280;35529;44.342;25.944;2023-12-20T03:41:14;100658.00;;;1.29;100.00
49122;BME280;35529;44.342;25.944;2023-12-20T03:43:40;100659.53;;;1.32;100.00
49122;BME280;35529;44.342;25.944;2023-12-20T03:46:08;100653.94;;;1.46;100.00
49122;BME280;35529;44.342;25.944;2023-12-20T03:48:34;100657.00;;;1.52;100.00
49122;BME280;35529;44.342;25.944;2023-12-20T03:51:00;100658.22;;;1.47;100.00
49122;BME280;35529;44.342;25.944;2023-12-20T03:53:26;100662.22;;;1.52;100.00
49122;BME280;35529;44.342;25.944;2023-12-20T03:55:52;100652.72;;;1.50;100.00
49122;BME280;35529;44.342;25.944;2023-12-20T03:58:18;100662.22;;;1.52;100.00
49122;BME280;35529;44.342;25.944;2023-12-20T04:00:45;100659.19;;;1.56;100.00
49122;BME280;35529;44.342;25.944;2023-12-20T04:03:11;100657.28;;;1.58;100.00
49122;BME280;35529;44.342;25.944;2023-12-20T04:05:40;100654.25;;;1.53;100.00
49122;BME280;35529;44.342;25.944;2023-12-20T04:08:06;100652.38;;;1.34;100.00
49122;BME280;35529;44.342;25.944;2023-12-20T04:10:33;100652.47;;;1.23;100.00
49122;BME280;35529;44.342;25.944;2023-12-20T04:12:59;100658.72;;;1.00;100.00
49122;BME280;35529;44.342;25.944;2023-12-20T04:15:25;100659.72;;;0.88;100.00
49122;BME280;35529;44.342;25.944;2023-12-20T04:17:51;100650.03;;;0.79;100.00
49122;BME280;35529;44.342;25.944;2023-12-20T04:20:17;100653.94;;;0.85;100.00
49122;BME280;35529;44.342;25.944;2023-12-20T04:22:43;100644.09;;;0.98;100.00
49122;BME280;35529;44.342;25.944;2023-12-20T04:25:10;100651.22;;;0.96;100.00
49122;BME280;35529;44.342;25.944;2023-12-20T04:27:36;100656.47;;;0.96;100.00
49122;BME280;35529;44.342;25.944;2023-12-20T04:30:02;100653.41;;;0.91;100.00
49122;BME280;35529;44.342;25.944;2023-12-20T04:32:28;100645.19;;;0.95;100.00
49122;BME280;35529;44.342;25.944;2023-12-20T04:34:54;100646.47;;;1.11;100.00
49122;BME280;35529;44.342;25.944;2023-12-20T04:37:20;100655.34;;;1.20;100.00
49122;BME280;35529;44.342;25.944;2023-12-20T04:39:46;100648.31;;;1.20;100.00
49122;BME280;35529;44.342;25.944;2023-12-20T04:42:13;100639.78;;;1.18;100.00
49122;BME280;35529;44.342;25.944;2023-12-20T04:44:39;100645.25;;;1.15;100.00
49122;BME280;35529;44.342;25.944;2023-12-20T04:47:05;100631.34;;;1.05;100.00
49122;BME280;35529;44.342;25.944;2023-12-20T04:49:31;100637.28;;;0.86;100.00
49122;BME280;35529;44.342;25.944;2023-12-20T04:51:57;100637.09;;;0.77;100.00
49122;BME280;35529;44.342;25.944;2023-12-20T04:54:23;100638.94;;;0.87;100.00
49122;BME280;35529;44.342;25.944;2023-12-20T04:56:49;100636.38;;;0.96;100.00
49122;BME280;35529;44.342;25.944;2023-12-20T04:59:16;100627.50;;;1.09;100.00
49122;BME280;35529;44.342;25.944;2023-12-20T05:01:42;100641.97;;;1.13;100.00
49122;BME280;35529;44.342;25.944;2023-12-20T05:04:08;100634.00;;;1.14;100.00
49122;BME280;35529;44.342;25.944;2023-12-20T05:06:34;100626.41;;;1.11;100.00
49122;BME280;35529;44.342;25.944;2023-12-20T05:09:00;100629.84;;;1.12;100.00
49122;BME280;35529;44.342;25.944;2023-12-20T05:11:26;100619.13;;;1.15;100.00
49122;BME280;35529;44.342;25.944;2023-12-20T05:13:52;100622.44;;;1.17;100.00
49122;BME280;35529;44.342;25.944;2023-12-20T05:16:18;100619.13;;;1.15;100.00
49122;BME280;35529;44.342;25.944;2023-12-20T05:18:45;100621.72;;;1.15;100.00
49122;BME280;35529;44.342;25.944;2023-12-20T05:21:11;100616.63;;;1.13;100.00
49122;BME280;35529;44.342;25.944;2023-12-20T05:23:37;100630.28;;;1.17;100.00
49122;BME280;35529;44.342;25.944;2023-12-20T05:26:03;100627.13;;;1.23;100.00
49122;BME280;35529;44.342;25.944;2023-12-20T05:28:30;100631.16;;;1.27;100.00
49122;BME280;35529;44.342;25.944;2023-12-20T05:30:56;100625.22;;;1.25;100.00
49122;BME280;35529;44.342;25.944;2023-12-20T05:33:22;100614.75;;;1.25;100.00
49122;BME280;35529;44.342;25.944;2023-12-20T05:35:48;100618.75;;;1.29;100.00
49122;BME280;35529;44.342;25.944;2023-12-20T05:38:14;100617.53;;;1.33;100.00
49122;BME280;35529;44.342;25.944;2023-12-20T05:40:40;100613.97;;;1.34;100.00
49122;BME280;35529;44.342;25.944;2023-12-20T05:43:06;100613.25;;;1.32;100.00
49122;BME280;35529;44.342;25.944;2023-12-20T05:45:32;100624.00;;;1.39;100.00
49122;BME280;35529;44.342;25.944;2023-12-20T05:47:59;100623.91;;;1.41;100.00
49122;BME280;35529;44.342;25.944;2023-12-20T05:50:25;100630.25;;;1.48;100.00
49122;BME280;35529;44.342;25.944;2023-12-20T05:52:51;100635.22;;;1.51;100.00
49122;BME280;35529;44.342;25.944;2023-12-20T05:55:17;100638.25;;;1.56;100.00
49122;BME280;35529;44.342;25.944;2023-12-20T05:57:43;100621.47;;;1.59;100.00
49122;BME280;35529;44.342;25.944;2023-12-20T06:00:09;100627.25;;;1.62;100.00
49122;BME280;35529;44.342;25.944;2023-12-20T06:02:36;100632.22;;;1.65;100.00
49122;BME280;35529;44.342;25.944;2023-12-20T06:05:04;100623.84;;;1.72;100.00
49122;BME280;35529;44.342;25.944;2023-12-20T06:07:30;100616.00;;;1.72;100.00
49122;BME280;35529;44.342;25.944;2023-12-20T06:09:56;100613.22;;;1.73;100.00
49122;BME280;35529;44.342;25.944;2023-12-20T06:12:22;100613.78;;;1.77;100.00
49122;BME280;35529;44.342;25.944;2023-12-20T06:14:48;100611.03;;;1.78;100.00
49122;BME280;35529;44.342;25.944;2023-12-20T06:17:15;100603.28;;;1.77;100.00
49122;BME280;35529;44.342;25.944;2023-12-20T06:19:41;100602.19;;;1.79;100.00
49122;BME280;35529;44.342;25.944;2023-12-20T06:22:10;100602.75;;;1.83;100.00
49122;BME280;35529;44.342;25.944;2023-12-20T06:24:36;100597.66;;;1.91;100.00
49122;BME280;35529;44.342;25.944;2023-12-20T06:27:03;100601.66;;;1.95;100.00
49122;BME280;35529;44.342;25.944;2023-12-20T06:29:29;100596.44;;;1.95;100.00
49122;BME280;35529;44.342;25.944;2023-12-20T06:31:56;100599.63;;;1.89;100.00
49122;BME280;35529;44.342;25.944;2023-12-20T06:34:22;100596.28;;;1.87;100.00
49122;BME280;35529;44.342;25.944;2023-12-20T06:36:48;100595.06;;;1.91;100.00
49122;BME280;35529;44.342;25.944;2023-12-20T06:39:15;100580.19;;;2.01;100.00
49122;BME280;35529;44.342;25.944;2023-12-20T06:41:41;100584.59;;;2.11;100.00
49122;BME280;35529;44.342;25.944;2023-12-20T06:44:08;100586.38;;;2.20;100.00
49122;BME280;35529;44.342;25.944;2023-12-20T06:46:34;100579.75;;;2.26;100.00
49122;BME280;35529;44.342;25.944;2023-12-20T06:49:01;100574.63;;;2.34;100.00
49122;BME280;35529;44.342;25.944;2023-12-20T06:51:27;100579.31;;;2.40;100.00
49122;BME280;35529;44.342;25.944;2023-12-20T06:53:53;100574.50;;;2.35;100.00
49122;BME280;35529;44.342;25.944;2023-12-20T06:56:20;100569.25;;;2.35;100.00
49122;BME280;35529;44.342;25.944;2023-12-20T06:58:46;100579.84;;;2.44;100.00
49122;BME280;35529;44.342;25.944;2023-12-20T07:01:15;100572.13;;;2.52;100.00
49122;BME280;35529;44.342;25.944;2023-12-20T07:03:41;100576.53;;;2.51;100.00
49122;BME280;35529;44.342;25.944;2023-12-20T07:06:08;100577.91;;;2.56;100.00
49122;BME280;35529;44.342;25.944;2023-12-20T07:08:34;100568.81;;;2.50;100.00
49122;BME280;35529;44.342;25.944;2023-12-20T07:11:00;100575.72;;;2.51;100.00
49122;BME280;35529;44.342;25.944;2023-12-20T07:13:27;100567.66;;;2.62;100.00
49122;BME280;35529;44.342;25.944;2023-12-20T07:15:53;100565.19;;;2.61;100.00
49122;BME280;35529;44.342;25.944;2023-12-20T07:18:19;100556.06;;;2.65;100.00
49122;BME280;35529;44.342;25.944;2023-12-20T07:20:45;100561.00;;;2.78;100.00
49122;BME280;35529;44.342;25.944;2023-12-20T07:23:12;100562.94;;;2.85;100.00
49122;BME280;35529;44.342;25.944;2023-12-20T07:25:38;100548.31;;;2.83;100.00
49122;BME280;35529;44.342;25.944;2023-12-20T07:28:04;100547.84;;;2.88;100.00
49122;BME280;35529;44.342;25.944;2023-12-20T07:30:30;100547.84;;;2.97;100.00
49122;BME280;35529;44.342;25.944;2023-12-20T07:32:56;100541.03;;;3.05;100.00
49122;BME280;35529;44.342;25.944;2023-12-20T07:35:23;100531.97;;;3.17;100.00
49122;BME280;35529;44.342;25.944;2023-12-20T07:37:49;100535.94;;;3.31;100.00
49122;BME280;35529;44.342;25.944;2023-12-20T07:40:15;100532.44;;;3.30;100.00
49122;BME280;35529;44.342;25.944;2023-12-20T07:42:43;100531.19;;;3.34;100.00
49122;BME280;35529;44.342;25.944;2023-12-20T07:45:09;100518.84;;;3.45;100.00
49122;BME280;35529;44.342;25.944;2023-12-20T07:47:36;100516.81;;;3.57;100.00
49122;BME280;35529;44.342;25.944;2023-12-20T07:50:02;100510.91;;;3.73;100.00
49122;BME280;35529;44.342;25.944;2023-12-20T07:52:29;100516.75;;;3.84;100.00
49122;BME280;35529;44.342;25.944;2023-12-20T07:54:55;100515.81;;;3.94;100.00
49122;BME280;35529;44.342;25.944;2023-12-20T07:57:22;100518.66;;;4.00;100.00
49122;BME280;35529;44.342;25.944;2023-12-20T07:59:48;100523.69;;;4.12;100.00
49122;BME280;35529;44.342;25.944;2023-12-20T08:02:14;100514.25;;;4.27;100.00
49122;BME280;35529;44.342;25.944;2023-12-20T08:04:40;100509.75;;;4.46;100.00
49122;BME280;35529;44.342;25.944;2023-12-20T08:07:07;100515.13;;;4.62;100.00
49122;BME280;35529;44.342;25.944;2023-12-20T08:09:33;100515.81;;;4.73;100.00
49122;BME280;35529;44.342;25.944;2023-12-20T08:12:00;100511.59;;;4.80;100.00
49122;BME280;35529;44.342;25.944;2023-12-20T08:14:26;100514.13;;;4.98;100.00
49122;BME280;35529;44.342;25.944;2023-12-20T08:16:52;100508.09;;;5.14;100.00
49122;BME280;35529;44.342;25.944;2023-12-20T08:19:18;100512.41;;;5.31;100.00
49122;BME280;35529;44.342;25.944;2023-12-20T08:21:44;100496.66;;;5.48;100.00
49122;BME280;35529;44.342;25.944;2023-12-20T08:24:10;100502.13;;;5.63;100.00
49122;BME280;35529;44.342;25.944;2023-12-20T08:26:37;100490.59;;;5.80;100.00
49122;BME280;35529;44.342;25.944;2023-12-20T08:29:03;100495.03;;;5.96;100.00
49122;BME280;35529;44.342;25.944;2023-12-20T08:31:29;100496.38;;;6.09;100.00
49122;BME280;35529;44.342;25.944;2023-12-20T08:33:55;100496.34;;;6.25;100.00
49122;BME280;35529;44.342;25.944;2023-12-20T08:36:21;100494.84;;;6.31;100.00
49122;BME280;35529;44.342;25.944;2023-12-20T08:38:49;100480.63;;;6.40;100.00
49122;BME280;35529;44.342;25.944;2023-12-20T08:41:16;100482.41;;;6.56;100.00
49122;BME280;35529;44.342;25.944;2023-12-20T08:43:43;100485.00;;;6.73;100.00
49122;BME280;35529;44.342;25.944;2023-12-20T08:46:09;100476.72;;;6.84;100.00
49122;BME280;35529;44.342;25.944;2023-12-20T08:48:35;100473.66;;;7.03;100.00
49122;BME280;35529;44.342;25.944;2023-12-20T08:51:01;100482.28;;;7.20;100.00
49122;BME280;35529;44.342;25.944;2023-12-20T08:53:28;100474.50;;;7.27;100.00
49122;BME280;35529;44.342;25.944;2023-12-20T08:55:54;100461.88;;;7.37;100.00
49122;BME280;35529;44.342;25.944;2023-12-20T08:58:20;100453.69;;;7.55;100.00
49122;BME280;35529;44.342;25.944;2023-12-20T09:00:46;100442.19;;;7.63;100.00
49122;BME280;35529;44.342;25.944;2023-12-20T09:03:12;100431.84;;;7.77;100.00
49122;BME280;35529;44.342;25.944;2023-12-20T09:05:38;100424.69;;;7.85;100.00
49122;BME280;35529;44.342;25.944;2023-12-20T09:08:04;100425.25;;;7.96;100.00
49122;BME280;35529;44.342;25.944;2023-12-20T09:10:31;100413.50;;;7.98;100.00
49122;BME280;35529;44.342;25.944;2023-12-20T09:12:57;100414.03;;;8.09;100.00
49122;BME280;35529;44.342;25.944;2023-12-20T09:15:26;100405.75;;;8.12;100.00
49122;BME280;35529;44.342;25.944;2023-12-20T09:17:53;100400.09;;;8.15;100.00
49122;BME280;35529;44.342;25.944;2023-12-20T09:20:19;100395.88;;;8.20;100.00
49122;BME280;35529;44.342;25.944;2023-12-20T09:22:45;100386.38;;;8.26;100.00
49122;BME280;35529;44.342;25.944;2023-12-20T09:25:12;100377.91;;;8.31;100.00
49122;BME280;35529;44.342;25.944;2023-12-20T09:27:38;100364.31;;;8.34;100.00
49122;BME280;35529;44.342;25.944;2023-12-20T09:30:04;100364.84;;;8.44;100.00
49122;BME280;35529;44.342;25.944;2023-12-20T09:32:31;100357.03;;;8.51;100.00
49122;BME280;35529;44.342;25.944;2023-12-20T09:34:57;100358.50;;;8.53;100.00
49122;BME280;35529;44.342;25.944;2023-12-20T09:37:27;100349.78;;;8.60;100.00
49122;BME280;35529;44.342;25.944;2023-12-20T09:39:53;100343.09;;;8.64;100.00
49122;BME280;35529;44.342;25.944;2023-12-20T09:42:31;100345.81;;;8.70;100.00
49122;BME280;35529;44.342;25.944;2023-12-20T09:45:02;100345.09;;;8.77;100.00
49122;BME280;35529;44.342;25.944;2023-12-20T09:47:29;100339.47;;;8.86;100.00
49122;BME280;35529;44.342;25.944;2023-12-20T09:49:55;100342.97;;;8.87;100.00
49122;BME280;35529;44.342;25.944;2023-12-20T09:52:21;100344.22;;;8.91;100.00
49122;BME280;35529;44.342;25.944;2023-12-20T09:54:48;100333.25;;;8.94;100.00
49122;BME280;35529;44.342;25.944;2023-12-20T09:57:15;100327.81;;;9.02;100.00
49122;BME280;35529;44.342;25.944;2023-12-20T09:59:41;100329.28;;;9.05;100.00
49122;BME280;35529;44.342;25.944;2023-12-20T10:02:08;100325.63;;;9.06;100.00
49122;BME280;35529;44.342;25.944;2023-12-20T10:04:38;100326.53;;;9.20;100.00
49122;BME280;35529;44.342;25.944;2023-12-20T10:07:05;100308.63;;;9.22;100.00
49122;BME280;35529;44.342;25.944;2023-12-20T10:09:32;100305.03;;;9.30;100.00
49122;BME280;35529;44.342;25.944;2023-12-20T10:11:58;100305.91;;;9.37;100.00
49122;BME280;35529;44.342;25.944;2023-12-20T10:14:24;100294.34;;;9.45;100.00
49122;BME280;35529;44.342;25.944;2023-12-20T10:16:51;100286.38;;;9.45;100.00
49122;BME280;35529;44.342;25.944;2023-12-20T10:19:17;100279.97;;;9.61;100.00
49122;BME280;35529;44.342;25.944;2023-12-20T10:21:44;100277.00;;;9.77;100.00
49122;BME280;35529;44.342;25.944;2023-12-20T10:24:11;100268.28;;;9.90;100.00
49122;BME280;35529;44.342;25.944;2023-12-20T10:26:42;100269.94;;;9.98;100.00
49122;BME280;35529;44.342;25.944;2023-12-20T10:29:08;100263.00;;;9.90;100.00
49122;BME280;35529;44.342;25.944;2023-12-20T10:31:36;100260.56;;;10.02;100.00
49122;BME280;35529;44.342;25.944;2023-12-20T10:34:04;100252.06;;;10.13;100.00
49122;BME280;35529;44.342;25.944;2023-12-20T10:36:33;100247.19;;;10.23;100.00
49122;BME280;35529;44.342;25.944;2023-12-20T10:39:02;100247.59;;;10.34;100.00
49122;BME280;35529;44.342;25.944;2023-12-20T10:41:29;100246.84;;;10.40;100.00
49122;BME280;35529;44.342;25.944;2023-12-20T10:44:03;100238.09;;;10.46;100.00
49122;BME280;35529;44.342;25.944;2023-12-20T10:46:30;100234.63;;;10.52;100.00
49122;BME280;35529;44.342;25.944;2023-12-20T10:48:58;100241.56;;;10.60;100.00
49122;BME280;35529;44.342;25.944;2023-12-20T10:51:25;100236.91;;;10.62;100.00
49122;BME280;35529;44.342;25.944;2023-12-20T10:53:56;100236.06;;;10.55;100.00
49122;BME280;35529;44.342;25.944;2023-12-20T10:56:22;100229.31;;;10.59;100.00
49122;BME280;35529;44.342;25.944;2023-12-20T10:58:52;100216.47;;;10.56;100.00
49122;BME280;35529;44.342;25.944;2023-12-20T11:01:18;100218.47;;;10.54;100.00
49122;BME280;35529;44.342;25.944;2023-12-20T11:03:48;100207.69;;;10.62;100.00
49122;BME280;35529;44.342;25.944;2023-12-20T11:09:43;100193.16;;;10.65;100.00
49122;BME280;35529;44.342;25.944;2023-12-20T11:17:08;100200.75;;;10.75;100.00
49122;BME280;35529;44.342;25.944;2023-12-20T11:19:43;100188.91;;;10.77;100.00
49122;BME280;35529;44.342;25.944;2023-12-20T11:22:25;100180.94;;;10.84;100.00
49122;BME280;35529;44.342;25.944;2023-12-20T11:24:52;100184.19;;;10.86;100.00
49122;BME280;35529;44.342;25.944;2023-12-20T11:27:19;100183.16;;;10.87;100.00
49122;BME280;35529;44.342;25.944;2023-12-20T11:29:52;100181.50;;;10.93;100.00
49122;BME280;35529;44.342;25.944;2023-12-20T11:34:51;100163.13;;;10.91;100.00
49122;BME280;35529;44.342;25.944;2023-12-20T11:37:19;100164.16;;;10.90;100.00
49122;BME280;35529;44.342;25.944;2023-12-20T11:39:53;100159.69;;;10.84;100.00
49122;BME280;35529;44.342;25.944;2023-12-20T11:42:19;100159.06;;;10.75;100.00
49122;BME280;35529;44.342;25.944;2023-12-20T11:44:46;100157.84;;;10.71;100.00
49122;BME280;35529;44.342;25.944;2023-12-20T11:47:12;100149.88;;;10.57;100.00
49122;BME280;35529;44.342;25.944;2023-12-20T11:49:39;100153.53;;;10.50;100.00
49122;BME280;35529;44.342;25.944;2023-12-20T11:52:06;100147.22;;;10.44;100.00
49122;BME280;35529;44.342;25.944;2023-12-20T11:54:32;100153.75;;;10.48;100.00
49122;BME280;35529;44.342;25.944;2023-12-20T11:56:58;100146.22;;;10.52;100.00
49122;BME280;35529;44.342;25.944;2023-12-20T11:59:24;100142.72;;;10.58;100.00
49122;BME280;35529;44.342;25.944;2023-12-20T12:01:50;100141.91;;;10.57;100.00
49122;BME280;35529;44.342;25.944;2023-12-20T12:04:17;100131.28;;;10.57;100.00
49122;BME280;35529;44.342;25.944;2023-12-20T12:06:44;100136.19;;;10.54;100.00
49122;BME280;35529;44.342;25.944;2023-12-20T12:09:11;100131.09;;;10.59;100.00
49122;BME280;35529;44.342;25.944;2023-12-20T12:11:37;100129.66;;;10.56;100.00
49122;BME280;35529;44.342;25.944;2023-12-20T12:14:03;100124.13;;;10.51;100.00
49122;BME280;35529;44.342;25.944;2023-12-20T12:16:29;100134.97;;;10.43;100.00
49122;BME280;35529;44.342;25.944;2023-12-20T12:18:56;100118.22;;;10.43;100.00
49122;BME280;35529;44.342;25.944;2023-12-20T12:21:23;100105.75;;;10.43;100.00
49122;BME280;35529;44.342;25.944;2023-12-20T12:23:49;100098.44;;;10.38;100.00
49122;BME280;35529;44.342;25.944;2023-12-20T12:26:15;100093.72;;;10.40;100.00
49122;BME280;35529;44.342;25.944;2023-12-20T12:28:41;100090.84;;;10.42;100.00
49122;BME280;35529;44.342;25.944;2023-12-20T12:31:08;100092.91;;;10.40;100.00
49122;BME280;35529;44.342;25.944;2023-12-20T12:33:35;100084.94;;;10.40;100.00
49122;BME280;35529;44.342;25.944;2023-12-20T12:36:01;100083.53;;;10.44;100.00
49122;BME280;35529;44.342;25.944;2023-12-20T12:38:27;100080.66;;;10.52;100.00
49122;BME280;35529;44.342;25.944;2023-12-20T12:40:54;100078.41;;;10.56;100.00
49122;BME280;35529;44.342;25.944;2023-12-20T12:43:21;100070.44;;;10.56;100.00
49122;BME280;35529;44.342;25.944;2023-12-20T12:45:48;100063.91;;;10.52;100.00